sensor_id;sensor_type;location;lat;lon;timestamp;P1;durP1;ratioP1;P2;durP2;ratioP2
74469;SDS011;62918;55.706;37.816;2022-09-09T00:00:18;2.05;;;0.80;;
74469;SDS011;62918;55.706;37.816;2022-09-09T00:00:55;2.95;;;0.70;;
74469;SDS011;62918;55.706;37.816;2022-09-09T00:01:51;1.95;;;0.80;;
74469;SDS011;62918;55.706;37.816;2022-09-09T00:02:31;4.95;;;0.68;;
74469;SDS011;62918;55.706;37.816;2022-09-09T00:03:40;2.20;;;0.70;;
74469;SDS011;62918;55.706;37.816;2022-09-09T00:04:59;2.03;;;0.70;;
74469;SDS011;62918;55.706;37.816;2022-09-09T00:05:59;2.88;;;0.68;;
74469;SDS011;62918;55.706;37.816;2022-09-09T00:07:10;1.73;;;0.43;;
74469;SDS011;62918;55.706;37.816;2022-09-09T00:08:20;2.85;;;0.32;;
74469;SDS011;62918;55.706;37.816;2022-09-09T00:09:11;1.85;;;0.47;;
74469;SDS011;62918;55.706;37.816;2022-09-09T00:10:29;1.70;;;0.65;;
74469;SDS011;62918;55.706;37.816;2022-09-09T00:11:02;3.10;;;0.77;;
74469;SDS011;62918;55.706;37.816;2022-09-09T00:13:54;3.03;;;0.50;;
74469;SDS011;62918;55.706;37.816;2022-09-09T00:14:45;2.63;;;0.50;;
74469;SDS011;62918;55.706;37.816;2022-09-09T00:15:25;1.48;;;0.55;;
74469;SDS011;62918;55.706;37.816;2022-09-09T00:16:17;1.63;;;0.40;;
74469;SDS011;62918;55.706;37.816;2022-09-09T00:16:55;1.85;;;0.50;;
74469;SDS011;62918;55.706;37.816;2022-09-09T00:17:36;3.05;;;0.40;;
74469;SDS011;62918;55.706;37.816;2022-09-09T00:19:07;2.95;;;0.50;;
74469;SDS011;62918;55.706;37.816;2022-09-09T00:19:46;2.72;;;0.30;;
74469;SDS011;62918;55.706;37.816;2022-09-09T00:20:32;1.88;;;0.60;;
74469;SDS011;62918;55.706;37.816;2022-09-09T00:21:13;2.28;;;0.40;;
74469;SDS011;62918;55.706;37.816;2022-09-09T00:21:58;1.95;;;0.40;;
74469;SDS011;62918;55.706;37.816;2022-09-09T00:22:40;2.42;;;0.30;;
74469;SDS011;62918;55.706;37.816;2022-09-09T00:23:57;3.53;;;0.45;;
74469;SDS011;62918;55.706;37.816;2022-09-09T00:24:32;2.00;;;0.50;;
74469;SDS011;62918;55.706;37.816;2022-09-09T00:25:11;1.30;;;0.40;;
74469;SDS011;62918;55.706;37.816;2022-09-09T00:26:22;2.67;;;0.55;;
74469;SDS011;62918;55.706;37.816;2022-09-09T00:27:01;1.90;;;0.50;;
74469;SDS011;62918;55.706;37.816;2022-09-09T00:27:40;2.75;;;0.70;;
74469;SDS011;62918;55.706;37.816;2022-09-09T00:28:19;1.77;;;0.50;;
74469;SDS011;62918;55.706;37.816;2022-09-09T00:29:37;2.03;;;0.40;;
74469;SDS011;62918;55.706;37.816;2022-09-09T00:30:18;3.03;;;0.45;;
74469;SDS011;62918;55.706;37.816;2022-09-09T00:31:25;2.25;;;0.45;;
74469;SDS011;62918;55.706;37.816;2022-09-09T00:32:04;2.00;;;0.43;;
74469;SDS011;62918;55.706;37.816;2022-09-09T00:32:42;3.45;;;0.47;;
74469;SDS011;62918;55.706;37.816;2022-09-09T00:33:15;1.92;;;0.55;;
74469;SDS011;62918;55.706;37.816;2022-09-09T00:33:48;1.95;;;0.57;;
74469;SDS011;62918;55.706;37.816;2022-09-09T00:34:21;1.92;;;0.60;;
74469;SDS011;62918;55.706;37.816;2022-09-09T00:34:58;3.35;;;0.43;;
74469;SDS011;62918;55.706;37.816;2022-09-09T00:35:36;1.52;;;0.40;;
74469;SDS011;62918;55.706;37.816;2022-09-09T00:36:13;2.42;;;0.45;;
74469;SDS011;62918;55.706;37.816;2022-09-09T00:36:51;3.33;;;0.60;;
74469;SDS011;62918;55.706;37.816;2022-09-09T00:37:23;2.20;;;0.43;;
74469;SDS011;62918;55.706;37.816;2022-09-09T00:37:56;1.90;;;0.40;;
74469;SDS011;62918;55.706;37.816;2022-09-09T00:39:02;2.50;;;0.70;;
74469;SDS011;62918;55.706;37.816;2022-09-09T00:39:42;1.83;;;0.60;;
74469;SDS011;62918;55.706;37.816;2022-09-09T00:40:40;1.50;;;0.50;;
74469;SDS011;62918;55.706;37.816;2022-09-09T00:41:19;3.20;;;0.40;;
74469;SDS011;62918;55.706;37.816;2022-09-09T00:42:42;2.47;;;0.70;;
74469;SDS011;62918;55.706;37.816;2022-09-09T00:44:07;3.08;;;0.60;;
74469;SDS011;62918;55.706;37.816;2022-09-09T00:48:15;1.33;;;0.30;;
74469;SDS011;62918;55.706;37.816;2022-09-09T00:51:15;3.05;;;0.40;;
74469;SDS011;62918;55.706;37.816;2022-09-09T00:53:18;2.20;;;0.70;;
74469;SDS011;62918;55.706;37.816;2022-09-09T00:53:58;2.03;;;0.30;;
74469;SDS011;62918;55.706;37.816;2022-09-09T00:54:40;1.48;;;0.40;;
74469;SDS011;62918;55.706;37.816;2022-09-09T00:55:41;1.83;;;0.52;;
74469;SDS011;62918;55.706;37.816;2022-09-09T00:56:27;2.28;;;0.60;;
74469;SDS011;62918;55.706;37.816;2022-09-09T00:57:13;1.33;;;0.35;;
74469;SDS011;62918;55.706;37.816;2022-09-09T00:57:48;3.00;;;0.50;;
74469;SDS011;62918;55.706;37.816;2022-09-09T00:58:22;2.13;;;0.50;;
74469;SDS011;62918;55.706;37.816;2022-09-09T00:59:35;3.55;;;0.60;;
74469;SDS011;62918;55.706;37.816;2022-09-09T01:00:29;3.08;;;0.43;;
74469;SDS011;62918;55.706;37.816;2022-09-09T01:01:10;2.47;;;0.50;;
74469;SDS011;62918;55.706;37.816;2022-09-09T01:01:43;1.70;;;0.43;;
74469;SDS011;62918;55.706;37.816;2022-09-09T01:02:23;2.65;;;0.40;;
74469;SDS011;62918;55.706;37.816;2022-09-09T01:03:06;2.00;;;0.57;;
74469;SDS011;62918;55.706;37.816;2022-09-09T01:03:53;1.38;;;0.50;;
74469;SDS011;62918;55.706;37.816;2022-09-09T01:04:29;1.90;;;0.40;;
74469;SDS011;62918;55.706;37.816;2022-09-09T01:06:11;1.33;;;0.30;;
74469;SDS011;62918;55.706;37.816;2022-09-09T01:06:31;2.25;;;0.60;;
74469;SDS011;62918;55.706;37.816;2022-09-09T01:07:16;1.60;;;0.45;;
74469;SDS011;62918;55.706;37.816;2022-09-09T01:07:48;2.65;;;0.57;;
74469;SDS011;62918;55.706;37.816;2022-09-09T01:09:32;2.70;;;0.52;;
74469;SDS011;62918;55.706;37.816;2022-09-09T01:10:07;1.85;;;0.60;;
74469;SDS011;62918;55.706;37.816;2022-09-09T01:10:51;5.05;;;0.50;;
74469;SDS011;62918;55.706;37.816;2022-09-09T01:11:25;2.10;;;0.45;;
74469;SDS011;62918;55.706;37.816;2022-09-09T01:13:21;1.88;;;0.40;;
74469;SDS011;62918;55.706;37.816;2022-09-09T01:14:00;3.45;;;0.90;;
74469;SDS011;62918;55.706;37.816;2022-09-09T01:15:31;2.60;;;0.52;;
74469;SDS011;62918;55.706;37.816;2022-09-09T01:16:03;1.70;;;0.47;;
74469;SDS011;62918;55.706;37.816;2022-09-09T01:16:38;1.48;;;0.52;;
74469;SDS011;62918;55.706;37.816;2022-09-09T01:17:27;2.60;;;0.65;;
74469;SDS011;62918;55.706;37.816;2022-09-09T01:18:17;4.07;;;0.75;;
74469;SDS011;62918;55.706;37.816;2022-09-09T01:18:51;3.13;;;0.80;;
74469;SDS011;62918;55.706;37.816;2022-09-09T01:19:27;2.90;;;0.43;;
74469;SDS011;62918;55.706;37.816;2022-09-09T01:20:49;3.55;;;0.63;;
74469;SDS011;62918;55.706;37.816;2022-09-09T01:26:15;1.50;;;0.65;;
74469;SDS011;62918;55.706;37.816;2022-09-09T01:26:54;2.97;;;0.57;;
74469;SDS011;62918;55.706;37.816;2022-09-09T01:27:28;2.97;;;0.70;;
74469;SDS011;62918;55.706;37.816;2022-09-09T01:28:03;1.83;;;0.68;;
74469;SDS011;62918;55.706;37.816;2022-09-09T01:28:38;2.20;;;0.45;;
74469;SDS011;62918;55.706;37.816;2022-09-09T01:29:11;2.15;;;0.52;;
74469;SDS011;62918;55.706;37.816;2022-09-09T01:29:44;4.30;;;0.80;;
74469;SDS011;62918;55.706;37.816;2022-09-09T01:30:15;4.13;;;0.75;;
74469;SDS011;62918;55.706;37.816;2022-09-09T01:30:47;2.22;;;0.77;;
74469;SDS011;62918;55.706;37.816;2022-09-09T01:31:28;2.08;;;0.52;;
74469;SDS011;62918;55.706;37.816;2022-09-09T01:33:28;3.05;;;0.80;;
74469;SDS011;62918;55.706;37.816;2022-09-09T01:33:58;2.70;;;0.63;;
74469;SDS011;62918;55.706;37.816;2022-09-09T01:34:33;2.08;;;0.60;;
74469;SDS011;62918;55.706;37.816;2022-09-09T01:35:09;3.60;;;0.85;;
74469;SDS011;62918;55.706;37.816;2022-09-09T01:35:59;3.50;;;0.88;;
74469;SDS011;62918;55.706;37.816;2022-09-09T01:36:43;2.58;;;0.68;;
74469;SDS011;62918;55.706;37.816;2022-09-09T01:37:18;3.13;;;0.80;;
74469;SDS011;62918;55.706;37.816;2022-09-09T01:37:48;3.50;;;0.90;;
74469;SDS011;62918;55.706;37.816;2022-09-09T01:38:19;2.40;;;0.50;;
74469;SDS011;62918;55.706;37.816;2022-09-09T01:38:50;2.85;;;0.60;;
74469;SDS011;62918;55.706;37.816;2022-09-09T01:39:21;3.05;;;0.90;;
74469;SDS011;62918;55.706;37.816;2022-09-09T01:39:52;3.25;;;0.80;;
74469;SDS011;62918;55.706;37.816;2022-09-09T01:40:23;2.50;;;0.65;;
74469;SDS011;62918;55.706;37.816;2022-09-09T01:41:25;2.97;;;0.63;;
74469;SDS011;62918;55.706;37.816;2022-09-09T01:41:56;2.70;;;1.00;;
74469;SDS011;62918;55.706;37.816;2022-09-09T01:42:27;2.45;;;0.90;;
74469;SDS011;62918;55.706;37.816;2022-09-09T01:42:58;2.55;;;1.10;;
74469;SDS011;62918;55.706;37.816;2022-09-09T01:43:28;2.22;;;0.70;;
74469;SDS011;62918;55.706;37.816;2022-09-09T01:44:00;2.40;;;0.90;;
74469;SDS011;62918;55.706;37.816;2022-09-09T01:44:30;3.90;;;1.13;;
74469;SDS011;62918;55.706;37.816;2022-09-09T01:45:01;2.47;;;0.85;;
74469;SDS011;62918;55.706;37.816;2022-09-09T01:45:33;2.40;;;0.80;;
74469;SDS011;62918;55.706;37.816;2022-09-09T01:46:04;2.47;;;0.90;;
74469;SDS011;62918;55.706;37.816;2022-09-09T01:46:35;2.47;;;0.82;;
74469;SDS011;62918;55.706;37.816;2022-09-09T01:47:05;4.05;;;1.05;;
74469;SDS011;62918;55.706;37.816;2022-09-09T01:47:36;2.10;;;0.73;;
74469;SDS011;62918;55.706;37.816;2022-09-09T01:48:07;3.63;;;1.13;;
74469;SDS011;62918;55.706;37.816;2022-09-09T01:48:37;2.88;;;1.05;;
74469;SDS011;62918;55.706;37.816;2022-09-09T01:49:09;2.33;;;0.70;;
74469;SDS011;62918;55.706;37.816;2022-09-09T01:49:43;2.70;;;0.73;;
74469;SDS011;62918;55.706;37.816;2022-09-09T01:50:15;3.13;;;0.82;;
74469;SDS011;62918;55.706;37.816;2022-09-09T01:50:47;5.25;;;1.10;;
74469;SDS011;62918;55.706;37.816;2022-09-09T01:51:17;2.67;;;0.90;;
74469;SDS011;62918;55.706;37.816;2022-09-09T01:51:55;2.22;;;0.80;;
74469;SDS011;62918;55.706;37.816;2022-09-09T01:52:26;2.30;;;0.63;;
74469;SDS011;62918;55.706;37.816;2022-09-09T01:52:57;1.95;;;0.90;;
74469;SDS011;62918;55.706;37.816;2022-09-09T01:53:29;3.65;;;1.00;;
74469;SDS011;62918;55.706;37.816;2022-09-09T01:54:00;3.42;;;1.17;;
74469;SDS011;62918;55.706;37.816;2022-09-09T01:54:32;3.38;;;0.90;;
74469;SDS011;62918;55.706;37.816;2022-09-09T01:55:04;2.50;;;1.02;;
74469;SDS011;62918;55.706;37.816;2022-09-09T01:55:37;2.60;;;0.70;;
74469;SDS011;62918;55.706;37.816;2022-09-09T01:56:25;2.38;;;1.00;;
74469;SDS011;62918;55.706;37.816;2022-09-09T01:58:37;6.13;;;1.20;;
74469;SDS011;62918;55.706;37.816;2022-09-09T02:00:07;3.85;;;1.35;;
74469;SDS011;62918;55.706;37.816;2022-09-09T02:00:42;4.75;;;1.40;;
74469;SDS011;62918;55.706;37.816;2022-09-09T02:01:25;3.08;;;1.38;;
74469;SDS011;62918;55.706;37.816;2022-09-09T02:02:53;3.00;;;1.20;;
74469;SDS011;62918;55.706;37.816;2022-09-09T02:03:53;3.05;;;1.13;;
74469;SDS011;62918;55.706;37.816;2022-09-09T02:06:40;2.08;;;0.73;;
74469;SDS011;62918;55.706;37.816;2022-09-09T02:07:57;3.30;;;1.08;;
74469;SDS011;62918;55.706;37.816;2022-09-09T02:08:48;2.75;;;0.90;;
74469;SDS011;62918;55.706;37.816;2022-09-09T02:09:21;3.13;;;1.40;;
74469;SDS011;62918;55.706;37.816;2022-09-09T02:11:45;3.85;;;0.82;;
74469;SDS011;62918;55.706;37.816;2022-09-09T02:12:18;2.92;;;1.02;;
74469;SDS011;62918;55.706;37.816;2022-09-09T02:12:55;3.67;;;1.38;;
74469;SDS011;62918;55.706;37.816;2022-09-09T02:14:33;3.22;;;1.10;;
74469;SDS011;62918;55.706;37.816;2022-09-09T02:15:11;3.08;;;0.90;;
74469;SDS011;62918;55.706;37.816;2022-09-09T02:16:37;2.60;;;0.95;;
74469;SDS011;62918;55.706;37.816;2022-09-09T02:17:11;2.72;;;1.35;;
74469;SDS011;62918;55.706;37.816;2022-09-09T02:17:47;3.53;;;1.05;;
74469;SDS011;62918;55.706;37.816;2022-09-09T02:18:54;2.55;;;1.00;;
74469;SDS011;62918;55.706;37.816;2022-09-09T02:19:58;4.70;;;1.00;;
74469;SDS011;62918;55.706;37.816;2022-09-09T02:20:36;3.92;;;1.25;;
74469;SDS011;62918;55.706;37.816;2022-09-09T02:21:08;3.72;;;1.48;;
74469;SDS011;62918;55.706;37.816;2022-09-09T02:21:42;2.78;;;1.30;;
74469;SDS011;62918;55.706;37.816;2022-09-09T02:22:18;3.45;;;1.20;;
74469;SDS011;62918;55.706;37.816;2022-09-09T02:22:51;5.28;;;1.20;;
74469;SDS011;62918;55.706;37.816;2022-09-09T02:23:23;2.80;;;1.30;;
74469;SDS011;62918;55.706;37.816;2022-09-09T02:23:54;3.63;;;1.45;;
74469;SDS011;62918;55.706;37.816;2022-09-09T02:24:29;3.00;;;1.10;;
74469;SDS011;62918;55.706;37.816;2022-09-09T02:25:03;3.05;;;1.20;;
74469;SDS011;62918;55.706;37.816;2022-09-09T02:25:36;5.22;;;1.00;;
74469;SDS011;62918;55.706;37.816;2022-09-09T02:26:10;3.13;;;1.02;;
74469;SDS011;62918;55.706;37.816;2022-09-09T02:26:45;4.45;;;1.63;;
74469;SDS011;62918;55.706;37.816;2022-09-09T02:27:18;2.58;;;1.20;;
74469;SDS011;62918;55.706;37.816;2022-09-09T02:27:49;3.20;;;1.33;;
74469;SDS011;62918;55.706;37.816;2022-09-09T02:28:21;4.07;;;1.23;;
74469;SDS011;62918;55.706;37.816;2022-09-09T02:28:55;4.50;;;1.17;;
74469;SDS011;62918;55.706;37.816;2022-09-09T02:29:39;3.53;;;1.30;;
74469;SDS011;62918;55.706;37.816;2022-09-09T02:30:11;5.10;;;1.35;;
74469;SDS011;62918;55.706;37.816;2022-09-09T02:30:43;4.20;;;1.30;;
74469;SDS011;62918;55.706;37.816;2022-09-09T02:31:17;4.63;;;1.40;;
74469;SDS011;62918;55.706;37.816;2022-09-09T02:31:50;3.65;;;1.60;;
74469;SDS011;62918;55.706;37.816;2022-09-09T02:32:25;5.07;;;1.55;;
74469;SDS011;62918;55.706;37.816;2022-09-09T02:32:56;3.42;;;1.20;;
74469;SDS011;62918;55.706;37.816;2022-09-09T02:33:37;2.92;;;1.35;;
74469;SDS011;62918;55.706;37.816;2022-09-09T02:34:13;3.20;;;1.35;;
74469;SDS011;62918;55.706;37.816;2022-09-09T02:34:53;9.05;;;1.20;;
74469;SDS011;62918;55.706;37.816;2022-09-09T02:35:29;3.53;;;0.93;;
74469;SDS011;62918;55.706;37.816;2022-09-09T02:36:02;2.88;;;1.13;;
74469;SDS011;62918;55.706;37.816;2022-09-09T02:36:37;4.43;;;1.50;;
74469;SDS011;62918;55.706;37.816;2022-09-09T02:37:10;4.97;;;1.50;;
74469;SDS011;62918;55.706;37.816;2022-09-09T02:37:43;2.92;;;1.45;;
74469;SDS011;62918;55.706;37.816;2022-09-09T02:38:17;3.85;;;1.40;;
74469;SDS011;62918;55.706;37.816;2022-09-09T02:38:52;3.60;;;1.65;;
74469;SDS011;62918;55.706;37.816;2022-09-09T02:39:23;3.72;;;1.60;;
74469;SDS011;62918;55.706;37.816;2022-09-09T02:39:54;4.65;;;1.55;;
74469;SDS011;62918;55.706;37.816;2022-09-09T02:40:25;4.47;;;1.55;;
74469;SDS011;62918;55.706;37.816;2022-09-09T02:40:56;4.00;;;1.50;;
74469;SDS011;62918;55.706;37.816;2022-09-09T02:41:34;2.47;;;1.40;;
74469;SDS011;62918;55.706;37.816;2022-09-09T02:42:07;2.85;;;1.27;;
74469;SDS011;62918;55.706;37.816;2022-09-09T02:42:41;3.13;;;1.27;;
74469;SDS011;62918;55.706;37.816;2022-09-09T02:43:14;2.38;;;1.33;;
74469;SDS011;62918;55.706;37.816;2022-09-09T02:43:46;3.38;;;1.55;;
74469;SDS011;62918;55.706;37.816;2022-09-09T02:44:17;5.05;;;1.50;;
74469;SDS011;62918;55.706;37.816;2022-09-09T02:44:48;5.18;;;1.88;;
74469;SDS011;62918;55.706;37.816;2022-09-09T02:45:19;3.70;;;1.52;;
74469;SDS011;62918;55.706;37.816;2022-09-09T02:47:34;2.75;;;1.42;;
74469;SDS011;62918;55.706;37.816;2022-09-09T02:49:09;3.83;;;1.25;;
74469;SDS011;62918;55.706;37.816;2022-09-09T02:51:32;2.90;;;1.33;;
74469;SDS011;62918;55.706;37.816;2022-09-09T02:52:13;4.43;;;1.60;;
74469;SDS011;62918;55.706;37.816;2022-09-09T02:52:57;3.60;;;1.42;;
74469;SDS011;62918;55.706;37.816;2022-09-09T02:54:19;3.17;;;1.17;;
74469;SDS011;62918;55.706;37.816;2022-09-09T02:54:52;2.63;;;1.10;;
74469;SDS011;62918;55.706;37.816;2022-09-09T02:56:05;3.17;;;1.40;;
74469;SDS011;62918;55.706;37.816;2022-09-09T02:56:46;3.97;;;1.63;;
74469;SDS011;62918;55.706;37.816;2022-09-09T02:57:27;4.25;;;1.50;;
74469;SDS011;62918;55.706;37.816;2022-09-09T02:58:00;3.40;;;1.67;;
74469;SDS011;62918;55.706;37.816;2022-09-09T02:58:36;3.30;;;1.15;;
74469;SDS011;62918;55.706;37.816;2022-09-09T02:59:09;4.30;;;1.40;;
74469;SDS011;62918;55.706;37.816;2022-09-09T02:59:41;3.08;;;1.20;;
74469;SDS011;62918;55.706;37.816;2022-09-09T03:00:14;5.80;;;1.55;;
74469;SDS011;62918;55.706;37.816;2022-09-09T03:00:49;3.65;;;1.48;;
74469;SDS011;62918;55.706;37.816;2022-09-09T03:01:21;2.60;;;1.30;;
74469;SDS011;62918;55.706;37.816;2022-09-09T03:01:51;4.15;;;1.48;;
74469;SDS011;62918;55.706;37.816;2022-09-09T03:02:23;3.17;;;1.30;;
74469;SDS011;62918;55.706;37.816;2022-09-09T03:02:55;4.32;;;1.20;;
74469;SDS011;62918;55.706;37.816;2022-09-09T03:03:26;5.70;;;1.67;;
74469;SDS011;62918;55.706;37.816;2022-09-09T03:03:57;4.60;;;1.40;;
74469;SDS011;62918;55.706;37.816;2022-09-09T03:04:28;2.92;;;1.30;;
74469;SDS011;62918;55.706;37.816;2022-09-09T03:04:59;5.43;;;1.65;;
74469;SDS011;62918;55.706;37.816;2022-09-09T03:05:30;3.40;;;1.48;;
74469;SDS011;62918;55.706;37.816;2022-09-09T03:06:01;3.67;;;1.67;;
74469;SDS011;62918;55.706;37.816;2022-09-09T03:06:32;4.05;;;1.55;;
74469;SDS011;62918;55.706;37.816;2022-09-09T03:07:03;5.75;;;1.70;;
74469;SDS011;62918;55.706;37.816;2022-09-09T03:07:34;3.20;;;1.90;;
74469;SDS011;62918;55.706;37.816;2022-09-09T03:08:05;3.15;;;1.70;;
74469;SDS011;62918;55.706;37.816;2022-09-09T03:08:35;4.65;;;2.05;;
74469;SDS011;62918;55.706;37.816;2022-09-09T03:09:06;4.30;;;2.30;;
74469;SDS011;62918;55.706;37.816;2022-09-09T03:09:38;3.88;;;1.48;;
74469;SDS011;62918;55.706;37.816;2022-09-09T03:10:08;4.18;;;1.55;;
74469;SDS011;62918;55.706;37.816;2022-09-09T03:10:40;3.20;;;1.40;;
74469;SDS011;62918;55.706;37.816;2022-09-09T03:11:11;3.42;;;1.80;;
74469;SDS011;62918;55.706;37.816;2022-09-09T03:11:41;3.80;;;1.50;;
74469;SDS011;62918;55.706;37.816;2022-09-09T03:12:12;4.45;;;2.03;;
74469;SDS011;62918;55.706;37.816;2022-09-09T03:12:43;3.22;;;1.50;;
74469;SDS011;62918;55.706;37.816;2022-09-09T03:13:13;2.92;;;1.48;;
74469;SDS011;62918;55.706;37.816;2022-09-09T03:13:45;3.25;;;1.92;;
74469;SDS011;62918;55.706;37.816;2022-09-09T03:14:15;4.18;;;1.63;;
74469;SDS011;62918;55.706;37.816;2022-09-09T03:14:46;3.47;;;1.60;;
74469;SDS011;62918;55.706;37.816;2022-09-09T03:15:17;4.65;;;1.60;;
74469;SDS011;62918;55.706;37.816;2022-09-09T03:15:47;3.95;;;1.73;;
74469;SDS011;62918;55.706;37.816;2022-09-09T03:16:18;4.07;;;1.70;;
74469;SDS011;62918;55.706;37.816;2022-09-09T03:16:49;3.13;;;1.40;;
74469;SDS011;62918;55.706;37.816;2022-09-09T03:17:24;4.00;;;1.52;;
74469;SDS011;62918;55.706;37.816;2022-09-09T03:17:54;3.55;;;1.40;;
74469;SDS011;62918;55.706;37.816;2022-09-09T03:18:25;3.75;;;1.55;;
74469;SDS011;62918;55.706;37.816;2022-09-09T03:18:58;4.28;;;1.58;;
74469;SDS011;62918;55.706;37.816;2022-09-09T03:19:28;3.58;;;1.67;;
74469;SDS011;62918;55.706;37.816;2022-09-09T03:20:00;3.80;;;1.90;;
74469;SDS011;62918;55.706;37.816;2022-09-09T03:20:31;3.70;;;1.70;;
74469;SDS011;62918;55.706;37.816;2022-09-09T03:21:02;5.85;;;2.10;;
74469;SDS011;62918;55.706;37.816;2022-09-09T03:21:32;4.70;;;1.75;;
74469;SDS011;62918;55.706;37.816;2022-09-09T03:22:03;4.22;;;1.92;;
74469;SDS011;62918;55.706;37.816;2022-09-09T03:23:59;6.18;;;1.85;;
74469;SDS011;62918;55.706;37.816;2022-09-09T03:24:30;3.45;;;1.60;;
74469;SDS011;62918;55.706;37.816;2022-09-09T03:25:01;4.95;;;1.48;;
74469;SDS011;62918;55.706;37.816;2022-09-09T03:25:37;4.00;;;1.50;;
74469;SDS011;62918;55.706;37.816;2022-09-09T03:26:08;3.65;;;1.50;;
74469;SDS011;62918;55.706;37.816;2022-09-09T03:26:39;5.00;;;1.80;;
74469;SDS011;62918;55.706;37.816;2022-09-09T03:27:10;6.53;;;2.10;;
74469;SDS011;62918;55.706;37.816;2022-09-09T03:27:41;3.85;;;1.83;;
74469;SDS011;62918;55.706;37.816;2022-09-09T03:28:11;4.95;;;1.63;;
74469;SDS011;62918;55.706;37.816;2022-09-09T03:28:42;5.30;;;2.03;;
74469;SDS011;62918;55.706;37.816;2022-09-09T03:29:13;4.03;;;1.73;;
74469;SDS011;62918;55.706;37.816;2022-09-09T03:29:46;4.90;;;1.92;;
74469;SDS011;62918;55.706;37.816;2022-09-09T03:30:17;4.55;;;1.50;;
74469;SDS011;62918;55.706;37.816;2022-09-09T03:30:48;3.22;;;1.55;;
74469;SDS011;62918;55.706;37.816;2022-09-09T03:31:19;7.45;;;2.08;;
74469;SDS011;62918;55.706;37.816;2022-09-09T03:31:49;3.25;;;1.60;;
74469;SDS011;62918;55.706;37.816;2022-09-09T03:32:21;4.47;;;1.88;;
74469;SDS011;62918;55.706;37.816;2022-09-09T03:32:52;3.17;;;1.65;;
74469;SDS011;62918;55.706;37.816;2022-09-09T03:33:23;4.28;;;2.00;;
74469;SDS011;62918;55.706;37.816;2022-09-09T03:33:53;4.07;;;1.92;;
74469;SDS011;62918;55.706;37.816;2022-09-09T03:34:24;4.03;;;1.90;;
74469;SDS011;62918;55.706;37.816;2022-09-09T03:34:54;4.65;;;1.83;;
74469;SDS011;62918;55.706;37.816;2022-09-09T03:35:25;4.03;;;1.58;;
74469;SDS011;62918;55.706;37.816;2022-09-09T03:35:55;4.30;;;1.55;;
74469;SDS011;62918;55.706;37.816;2022-09-09T03:36:26;4.65;;;2.10;;
74469;SDS011;62918;55.706;37.816;2022-09-09T03:36:57;4.00;;;1.60;;
74469;SDS011;62918;55.706;37.816;2022-09-09T03:37:27;3.60;;;1.60;;
74469;SDS011;62918;55.706;37.816;2022-09-09T03:37:58;3.75;;;1.58;;
74469;SDS011;62918;55.706;37.816;2022-09-09T03:38:29;4.60;;;1.83;;
74469;SDS011;62918;55.706;37.816;2022-09-09T03:38:59;4.07;;;2.03;;
74469;SDS011;62918;55.706;37.816;2022-09-09T03:39:31;5.63;;;1.63;;
74469;SDS011;62918;55.706;37.816;2022-09-09T03:40:01;3.75;;;1.73;;
74469;SDS011;62918;55.706;37.816;2022-09-09T03:40:33;4.60;;;1.70;;
74469;SDS011;62918;55.706;37.816;2022-09-09T03:41:04;4.72;;;1.70;;
74469;SDS011;62918;55.706;37.816;2022-09-09T03:41:36;4.53;;;1.67;;
74469;SDS011;62918;55.706;37.816;2022-09-09T03:42:07;4.80;;;1.60;;
74469;SDS011;62918;55.706;37.816;2022-09-09T03:42:37;4.40;;;1.70;;
74469;SDS011;62918;55.706;37.816;2022-09-09T03:43:09;3.40;;;1.70;;
74469;SDS011;62918;55.706;37.816;2022-09-09T03:43:39;4.70;;;1.77;;
74469;SDS011;62918;55.706;37.816;2022-09-09T03:44:11;4.55;;;1.85;;
74469;SDS011;62918;55.706;37.816;2022-09-09T03:44:42;3.58;;;1.58;;
74469;SDS011;62918;55.706;37.816;2022-09-09T03:45:13;3.22;;;1.30;;
74469;SDS011;62918;55.706;37.816;2022-09-09T03:45:47;3.38;;;1.52;;
74469;SDS011;62918;55.706;37.816;2022-09-09T03:46:18;4.53;;;1.60;;
74469;SDS011;62918;55.706;37.816;2022-09-09T03:46:49;5.22;;;1.50;;
74469;SDS011;62918;55.706;37.816;2022-09-09T03:47:20;3.78;;;1.85;;
74469;SDS011;62918;55.706;37.816;2022-09-09T03:47:54;5.97;;;1.95;;
74469;SDS011;62918;55.706;37.816;2022-09-09T03:48:24;6.05;;;1.80;;
74469;SDS011;62918;55.706;37.816;2022-09-09T03:48:57;4.78;;;2.38;;
74469;SDS011;62918;55.706;37.816;2022-09-09T03:49:28;3.60;;;2.10;;
74469;SDS011;62918;55.706;37.816;2022-09-09T03:49:59;4.25;;;1.85;;
74469;SDS011;62918;55.706;37.816;2022-09-09T03:50:29;6.05;;;2.08;;
74469;SDS011;62918;55.706;37.816;2022-09-09T03:51:00;4.80;;;2.15;;
74469;SDS011;62918;55.706;37.816;2022-09-09T03:51:31;3.75;;;2.00;;
74469;SDS011;62918;55.706;37.816;2022-09-09T03:52:02;4.75;;;2.22;;
74469;SDS011;62918;55.706;37.816;2022-09-09T03:52:34;3.90;;;2.05;;
74469;SDS011;62918;55.706;37.816;2022-09-09T03:53:05;4.32;;;2.22;;
74469;SDS011;62918;55.706;37.816;2022-09-09T03:53:36;5.70;;;1.98;;
74469;SDS011;62918;55.706;37.816;2022-09-09T03:54:09;4.50;;;1.90;;
74469;SDS011;62918;55.706;37.816;2022-09-09T03:54:40;5.18;;;1.88;;
74469;SDS011;62918;55.706;37.816;2022-09-09T03:55:12;6.68;;;2.10;;
74469;SDS011;62918;55.706;37.816;2022-09-09T03:55:43;5.07;;;2.05;;
74469;SDS011;62918;55.706;37.816;2022-09-09T03:56:17;6.40;;;1.55;;
74469;SDS011;62918;55.706;37.816;2022-09-09T03:56:48;5.53;;;1.85;;
74469;SDS011;62918;55.706;37.816;2022-09-09T03:57:21;4.18;;;1.92;;
74469;SDS011;62918;55.706;37.816;2022-09-09T03:57:57;4.03;;;1.90;;
74469;SDS011;62918;55.706;37.816;2022-09-09T03:58:34;4.00;;;2.30;;
74469;SDS011;62918;55.706;37.816;2022-09-09T03:59:05;3.88;;;2.47;;
74469;SDS011;62918;55.706;37.816;2022-09-09T03:59:38;4.32;;;2.20;;
74469;SDS011;62918;55.706;37.816;2022-09-09T04:00:09;4.10;;;2.45;;
74469;SDS011;62918;55.706;37.816;2022-09-09T04:01:02;3.75;;;1.80;;
74469;SDS011;62918;55.706;37.816;2022-09-09T04:01:38;5.18;;;1.73;;
74469;SDS011;62918;55.706;37.816;2022-09-09T04:02:10;3.50;;;2.15;;
74469;SDS011;62918;55.706;37.816;2022-09-09T04:02:41;4.95;;;1.90;;
74469;SDS011;62918;55.706;37.816;2022-09-09T04:03:14;4.65;;;2.10;;
74469;SDS011;62918;55.706;37.816;2022-09-09T04:03:45;2.60;;;1.90;;
74469;SDS011;62918;55.706;37.816;2022-09-09T04:04:18;4.25;;;1.85;;
74469;SDS011;62918;55.706;37.816;2022-09-09T04:04:50;4.78;;;2.20;;
74469;SDS011;62918;55.706;37.816;2022-09-09T04:07:08;4.05;;;2.10;;
74469;SDS011;62918;55.706;37.816;2022-09-09T04:07:39;4.68;;;2.40;;
74469;SDS011;62918;55.706;37.816;2022-09-09T04:08:09;3.80;;;1.92;;
74469;SDS011;62918;55.706;37.816;2022-09-09T04:08:41;5.43;;;1.98;;
74469;SDS011;62918;55.706;37.816;2022-09-09T04:09:12;3.90;;;1.88;;
74469;SDS011;62918;55.706;37.816;2022-09-09T04:09:42;3.63;;;2.08;;
74469;SDS011;62918;55.706;37.816;2022-09-09T04:10:13;3.67;;;2.10;;
74469;SDS011;62918;55.706;37.816;2022-09-09T04:10:44;4.43;;;1.85;;
74469;SDS011;62918;55.706;37.816;2022-09-09T04:11:16;4.35;;;2.33;;
74469;SDS011;62918;55.706;37.816;2022-09-09T04:11:47;3.63;;;1.63;;
74469;SDS011;62918;55.706;37.816;2022-09-09T04:12:19;4.97;;;1.98;;
74469;SDS011;62918;55.706;37.816;2022-09-09T04:12:50;4.32;;;2.17;;
74469;SDS011;62918;55.706;37.816;2022-09-09T04:13:22;4.00;;;1.70;;
74469;SDS011;62918;55.706;37.816;2022-09-09T04:13:53;5.22;;;2.40;;
74469;SDS011;62918;55.706;37.816;2022-09-09T04:14:26;4.18;;;2.47;;
74469;SDS011;62918;55.706;37.816;2022-09-09T04:15:01;6.15;;;2.05;;
74469;SDS011;62918;55.706;37.816;2022-09-09T04:15:33;5.28;;;2.00;;